sensor_id;sensor_type;location;lat;lon;timestamp;P1;durP1;ratioP1;P2;durP2;ratioP2
14377;SDS011;7272;53.668;9.578;2023-01-28T00:02:01;2.43;;;2.33;;
14377;SDS011;7272;53.668;9.578;2023-01-28T00:05:03;2.97;;;2.70;;
14377;SDS011;7272;53.668;9.578;2023-01-28T00:08:05;2.77;;;2.57;;
14377;SDS011;7272;53.668;9.578;2023-01-28T00:11:08;3.67;;;3.00;;
14377;SDS011;7272;53.668;9.578;2023-01-28T00:14:12;2.77;;;2.67;;
14377;SDS011;7272;53.668;9.578;2023-01-28T00:17:15;3.33;;;2.90;;
14377;SDS011;7272;53.668;9.578;2023-01-28T00:20:17;2.70;;;2.50;;
14377;SDS011;7272;53.668;9.578;2023-01-28T00:23:19;2.90;;;2.60;;
14377;SDS011;7272;53.668;9.578;2023-01-28T00:26:21;3.00;;;2.70;;
14377;SDS011;7272;53.668;9.578;2023-01-28T00:29:24;2.50;;;2.30;;
14377;SDS011;7272;53.668;9.578;2023-01-28T00:32:27;3.07;;;2.50;;
14377;SDS011;7272;53.668;9.578;2023-01-28T00:35:29;2.27;;;2.10;;
14377;SDS011;7272;53.668;9.578;2023-01-28T00:38:31;2.63;;;2.43;;
14377;SDS011;7272;53.668;9.578;2023-01-28T00:41:34;2.90;;;2.53;;
14377;SDS011;7272;53.668;9.578;2023-01-28T00:44:36;2.33;;;2.13;;
14377;SDS011;7272;53.668;9.578;2023-01-28T00:47:40;2.37;;;2.17;;
14377;SDS011;7272;53.668;9.578;2023-01-28T00:50:44;3.07;;;2.70;;
14377;SDS011;7272;53.668;9.578;2023-01-28T00:53:47;1.70;;;1.60;;
14377;SDS011;7272;53.668;9.578;2023-01-28T00:56:50;1.83;;;1.73;;
14377;SDS011;7272;53.668;9.578;2023-01-28T00:59:53;3.13;;;2.83;;
14377;SDS011;7272;53.668;9.578;2023-01-28T01:02:56;2.97;;;2.77;;
14377;SDS011;7272;53.668;9.578;2023-01-28T01:05:59;2.53;;;2.33;;
14377;SDS011;7272;53.668;9.578;2023-01-28T01:09:02;2.40;;;2.30;;
14377;SDS011;7272;53.668;9.578;2023-01-28T01:12:05;3.27;;;2.97;;
14377;SDS011;7272;53.668;9.578;2023-01-28T01:15:08;3.23;;;2.70;;
14377;SDS011;7272;53.668;9.578;2023-01-28T01:18:12;2.97;;;2.67;;
14377;SDS011;7272;53.668;9.578;2023-01-28T01:21:15;2.87;;;2.67;;
14377;SDS011;7272;53.668;9.578;2023-01-28T01:24:18;2.63;;;2.40;;
14377;SDS011;7272;53.668;9.578;2023-01-28T01:27:24;2.13;;;2.03;;
14377;SDS011;7272;53.668;9.578;2023-01-28T01:30:26;2.40;;;2.03;;
14377;SDS011;7272;53.668;9.578;2023-01-28T01:33:29;2.40;;;2.20;;
14377;SDS011;7272;53.668;9.578;2023-01-28T01:36:31;3.30;;;3.00;;
14377;SDS011;7272;53.668;9.578;2023-01-28T01:39:33;2.93;;;2.67;;
14377;SDS011;7272;53.668;9.578;2023-01-28T01:42:35;2.80;;;2.37;;
14377;SDS011;7272;53.668;9.578;2023-01-28T01:45:37;2.57;;;2.37;;
14377;SDS011;7272;53.668;9.578;2023-01-28T01:48:40;2.27;;;2.13;;
14377;SDS011;7272;53.668;9.578;2023-01-28T01:51:43;2.53;;;2.33;;
14377;SDS011;7272;53.668;9.578;2023-01-28T01:54:48;3.00;;;2.80;;
14377;SDS011;7272;53.668;9.578;2023-01-28T01:57:54;2.90;;;2.70;;
14377;SDS011;7272;53.668;9.578;2023-01-28T02:01:00;2.87;;;2.70;;
14377;SDS011;7272;53.668;9.578;2023-01-28T02:04:05;2.57;;;2.37;;
14377;SDS011;7272;53.668;9.578;2023-01-28T02:07:10;2.80;;;2.60;;
14377;SDS011;7272;53.668;9.578;2023-01-28T02:10:13;2.77;;;2.57;;
14377;SDS011;7272;53.668;9.578;2023-01-28T02:13:16;2.53;;;2.43;;
14377;SDS011;7272;53.668;9.578;2023-01-28T02:16:20;2.77;;;2.57;;
14377;SDS011;7272;53.668;9.578;2023-01-28T02:19:25;4.90;;;3.70;;
14377;SDS011;7272;53.668;9.578;2023-01-28T02:29:28;2.70;;;2.50;;
14377;SDS011;7272;53.668;9.578;2023-01-28T02:32:39;2.57;;;2.37;;
14377;SDS011;7272;53.668;9.578;2023-01-28T02:35:47;2.80;;;2.60;;
14377;SDS011;7272;53.668;9.578;2023-01-28T02:38:52;2.80;;;2.60;;
14377;SDS011;7272;53.668;9.578;2023-01-28T02:41:56;4.13;;;3.20;;
14377;SDS011;7272;53.668;9.578;2023-01-28T02:45:09;3.20;;;3.00;;
14377;SDS011;7272;53.668;9.578;2023-01-28T02:48:17;2.63;;;2.43;;
14377;SDS011;7272;53.668;9.578;2023-01-28T02:51:23;2.80;;;2.60;;
14377;SDS011;7272;53.668;9.578;2023-01-28T02:54:38;2.20;;;2.10;;
14377;SDS011;7272;53.668;9.578;2023-01-28T02:57:47;2.60;;;2.40;;
14377;SDS011;7272;53.668;9.578;2023-01-28T03:01:00;2.57;;;2.30;;
14377;SDS011;7272;53.668;9.578;2023-01-28T03:04:09;2.10;;;2.00;;
14377;SDS011;7272;53.668;9.578;2023-01-28T03:07:19;2.40;;;2.30;;
14377;SDS011;7272;53.668;9.578;2023-01-28T03:10:24;3.27;;;2.43;;
14377;SDS011;7272;53.668;9.578;2023-01-28T03:13:27;3.00;;;2.80;;
14377;SDS011;7272;53.668;9.578;2023-01-28T03:16:48;2.47;;;2.27;;
14377;SDS011;7272;53.668;9.578;2023-01-28T03:20:09;2.70;;;2.33;;
14377;SDS011;7272;53.668;9.578;2023-01-28T03:23:31;2.40;;;2.20;;
14377;SDS011;7272;53.668;9.578;2023-01-28T03:27:01;2.50;;;2.40;;
14377;SDS011;7272;53.668;9.578;2023-01-28T03:30:33;2.40;;;2.20;;
14377;SDS011;7272;53.668;9.578;2023-01-28T03:34:05;3.73;;;2.97;;
14377;SDS011;7272;53.668;9.578;2023-01-28T03:37:27;2.50;;;2.30;;
14377;SDS011;7272;53.668;9.578;2023-01-28T03:40:47;2.80;;;2.60;;
14377;SDS011;7272;53.668;9.578;2023-01-28T03:43:51;2.63;;;2.33;;
14377;SDS011;7272;53.668;9.578;2023-01-28T03:46:54;3.03;;;2.73;;
14377;SDS011;7272;53.668;9.578;2023-01-28T03:49:57;3.57;;;3.37;;
14377;SDS011;7272;53.668;9.578;2023-01-28T03:53:01;2.83;;;2.63;;
14377;SDS011;7272;53.668;9.578;2023-01-28T03:56:20;4.83;;;3.37;;
14377;SDS011;7272;53.668;9.578;2023-01-28T03:59:23;3.50;;;3.20;;
14377;SDS011;7272;53.668;9.578;2023-01-28T04:02:26;3.77;;;3.47;;
14377;SDS011;7272;53.668;9.578;2023-01-28T04:05:29;3.03;;;2.83;;
14377;SDS011;7272;53.668;9.578;2023-01-28T04:08:33;3.63;;;3.33;;
14377;SDS011;7272;53.668;9.578;2023-01-28T04:11:58;3.37;;;3.17;;
14377;SDS011;7272;53.668;9.578;2023-01-28T04:15:06;4.23;;;3.83;;
14377;SDS011;7272;53.668;9.578;2023-01-28T04:18:15;4.07;;;3.77;;
14377;SDS011;7272;53.668;9.578;2023-01-28T04:21:18;4.30;;;3.93;;
14377;SDS011;7272;53.668;9.578;2023-01-28T04:24:21;5.83;;;4.80;;
14377;SDS011;7272;53.668;9.578;2023-01-28T04:27:24;4.77;;;4.37;;
14377;SDS011;7272;53.668;9.578;2023-01-28T04:30:26;4.73;;;4.43;;
14377;SDS011;7272;53.668;9.578;2023-01-28T04:33:47;5.70;;;4.67;;
14377;SDS011;7272;53.668;9.578;2023-01-28T04:37:11;4.30;;;4.00;;
14377;SDS011;7272;53.668;9.578;2023-01-28T04:40:32;5.63;;;5.23;;
14377;SDS011;7272;53.668;9.578;2023-01-28T04:43:44;5.20;;;4.70;;
14377;SDS011;7272;53.668;9.578;2023-01-28T04:47:05;5.70;;;5.00;;
14377;SDS011;7272;53.668;9.578;2023-01-28T04:50:32;5.77;;;5.13;;
14377;SDS011;7272;53.668;9.578;2023-01-28T04:54:02;5.83;;;5.33;;
14377;SDS011;7272;53.668;9.578;2023-01-28T04:57:06;6.20;;;4.83;;
14377;SDS011;7272;53.668;9.578;2023-01-28T05:00:09;6.13;;;5.53;;
14377;SDS011;7272;53.668;9.578;2023-01-28T05:03:12;5.40;;;4.97;;
14377;SDS011;7272;53.668;9.578;2023-01-28T05:06:14;4.00;;;3.70;;
14377;SDS011;7272;53.668;9.578;2023-01-28T05:09:20;4.17;;;3.93;;
14377;SDS011;7272;53.668;9.578;2023-01-28T05:12:24;5.10;;;4.63;;
14377;SDS011;7272;53.668;9.578;2023-01-28T05:15:28;5.97;;;5.40;;
14377;SDS011;7272;53.668;9.578;2023-01-28T05:18:30;5.00;;;4.60;;
14377;SDS011;7272;53.668;9.578;2023-01-28T05:21:42;5.53;;;5.07;;
14377;SDS011;7272;53.668;9.578;2023-01-28T05:24:53;6.10;;;5.60;;
14377;SDS011;7272;53.668;9.578;2023-01-28T05:27:55;5.63;;;5.23;;
14377;SDS011;7272;53.668;9.578;2023-01-28T05:31:01;4.77;;;4.47;;
14377;SDS011;7272;53.668;9.578;2023-01-28T05:34:03;5.03;;;4.63;;
14377;SDS011;7272;53.668;9.578;2023-01-28T05:37:05;5.87;;;5.13;;
14377;SDS011;7272;53.668;9.578;2023-01-28T05:40:13;5.37;;;4.90;;
14377;SDS011;7272;53.668;9.578;2023-01-28T05:43:17;6.17;;;5.60;;
14377;SDS011;7272;53.668;9.578;2023-01-28T05:46:39;4.83;;;4.43;;
14377;SDS011;7272;53.668;9.578;2023-01-28T05:50:04;5.47;;;5.07;;
14377;SDS011;7272;53.668;9.578;2023-01-28T05:53:26;4.20;;;3.90;;
14377;SDS011;7272;53.668;9.578;2023-01-28T05:56:30;5.17;;;4.77;;
14377;SDS011;7272;53.668;9.578;2023-01-28T05:59:32;4.93;;;4.53;;
14377;SDS011;7272;53.668;9.578;2023-01-28T06:02:34;5.23;;;4.83;;
14377;SDS011;7272;53.668;9.578;2023-01-28T06:05:37;5.13;;;4.73;;
14377;SDS011;7272;53.668;9.578;2023-01-28T06:08:40;5.17;;;4.63;;
14377;SDS011;7272;53.668;9.578;2023-01-28T06:11:44;5.43;;;4.93;;
14377;SDS011;7272;53.668;9.578;2023-01-28T06:14:47;5.60;;;5.17;;
14377;SDS011;7272;53.668;9.578;2023-01-28T06:18:08;4.90;;;4.50;;
14377;SDS011;7272;53.668;9.578;2023-01-28T06:21:10;5.00;;;4.53;;
14377;SDS011;7272;53.668;9.578;2023-01-28T06:24:12;5.70;;;5.17;;
14377;SDS011;7272;53.668;9.578;2023-01-28T06:27:16;4.37;;;4.07;;
14377;SDS011;7272;53.668;9.578;2023-01-28T06:30:18;5.97;;;5.47;;
14377;SDS011;7272;53.668;9.578;2023-01-28T06:33:20;6.63;;;6.07;;
14377;SDS011;7272;53.668;9.578;2023-01-28T06:36:23;7.50;;;6.90;;
14377;SDS011;7272;53.668;9.578;2023-01-28T06:39:25;6.57;;;6.07;;
14377;SDS011;7272;53.668;9.578;2023-01-28T06:42:32;6.40;;;5.80;;
14377;SDS011;7272;53.668;9.578;2023-01-28T06:45:34;6.50;;;5.80;;
14377;SDS011;7272;53.668;9.578;2023-01-28T06:48:36;6.57;;;5.97;;
14377;SDS011;7272;53.668;9.578;2023-01-28T06:51:38;6.60;;;6.07;;
14377;SDS011;7272;53.668;9.578;2023-01-28T06:54:39;7.70;;;7.00;;
14377;SDS011;7272;53.668;9.578;2023-01-28T06:57:43;7.47;;;6.87;;
14377;SDS011;7272;53.668;9.578;2023-01-28T07:00:45;6.27;;;5.67;;
14377;SDS011;7272;53.668;9.578;2023-01-28T07:03:47;6.87;;;6.37;;
14377;SDS011;7272;53.668;9.578;2023-01-28T07:06:49;9.40;;;7.57;;
14377;SDS011;7272;53.668;9.578;2023-01-28T07:09:51;8.13;;;7.20;;
14377;SDS011;7272;53.668;9.578;2023-01-28T07:12:54;7.40;;;6.73;;
14377;SDS011;7272;53.668;9.578;2023-01-28T07:15:56;8.00;;;7.33;;
14377;SDS011;7272;53.668;9.578;2023-01-28T07:18:57;9.13;;;8.23;;
14377;SDS011;7272;53.668;9.578;2023-01-28T07:21:59;7.60;;;6.90;;
14377;SDS011;7272;53.668;9.578;2023-01-28T07:25:02;7.23;;;6.63;;
14377;SDS011;7272;53.668;9.578;2023-01-28T07:28:06;7.67;;;6.97;;
14377;SDS011;7272;53.668;9.578;2023-01-28T07:31:08;6.60;;;6.10;;
14377;SDS011;7272;53.668;9.578;2023-01-28T07:34:09;6.63;;;5.93;;
14377;SDS011;7272;53.668;9.578;2023-01-28T07:37:11;7.40;;;6.80;;
14377;SDS011;7272;53.668;9.578;2023-01-28T07:40:13;6.53;;;6.03;;
14377;SDS011;7272;53.668;9.578;2023-01-28T07:43:17;7.47;;;6.73;;
14377;SDS011;7272;53.668;9.578;2023-01-28T07:46:19;6.80;;;6.20;;
14377;SDS011;7272;53.668;9.578;2023-01-28T07:49:21;6.33;;;5.73;;
14377;SDS011;7272;53.668;9.578;2023-01-28T07:52:23;6.23;;;5.73;;
14377;SDS011;7272;53.668;9.578;2023-01-28T07:55:25;6.27;;;5.77;;
14377;SDS011;7272;53.668;9.578;2023-01-28T07:58:28;5.53;;;5.13;;
14377;SDS011;7272;53.668;9.578;2023-01-28T08:01:31;6.67;;;6.17;;
14377;SDS011;7272;53.668;9.578;2023-01-28T08:04:33;6.53;;;5.93;;
14377;SDS011;7272;53.668;9.578;2023-01-28T08:07:35;5.83;;;5.37;;
14377;SDS011;7272;53.668;9.578;2023-01-28T08:10:37;5.87;;;5.37;;
14377;SDS011;7272;53.668;9.578;2023-01-28T08:13:41;6.83;;;6.17;;
14377;SDS011;7272;53.668;9.578;2023-01-28T08:16:43;6.93;;;6.33;;
14377;SDS011;7272;53.668;9.578;2023-01-28T08:19:45;8.20;;;7.40;;
14377;SDS011;7272;53.668;9.578;2023-01-28T08:22:46;6.70;;;6.07;;
14377;SDS011;7272;53.668;9.578;2023-01-28T08:25:49;7.20;;;6.60;;
14377;SDS011;7272;53.668;9.578;2023-01-28T08:28:52;7.20;;;6.60;;
14377;SDS011;7272;53.668;9.578;2023-01-28T08:31:54;7.40;;;6.77;;
14377;SDS011;7272;53.668;9.578;2023-01-28T08:34:56;6.97;;;6.37;;
14377;SDS011;7272;53.668;9.578;2023-01-28T08:37:58;7.57;;;6.87;;
14377;SDS011;7272;53.668;9.578;2023-01-28T08:41:00;7.33;;;6.73;;
14377;SDS011;7272;53.668;9.578;2023-01-28T08:44:04;7.63;;;7.03;;
14377;SDS011;7272;53.668;9.578;2023-01-28T08:47:06;7.73;;;7.03;;
14377;SDS011;7272;53.668;9.578;2023-01-28T08:50:08;7.57;;;6.87;;
14377;SDS011;7272;53.668;9.578;2023-01-28T08:53:14;8.33;;;7.53;;
14377;SDS011;7272;53.668;9.578;2023-01-28T08:56:17;7.03;;;6.43;;
14377;SDS011;7272;53.668;9.578;2023-01-28T08:59:20;8.13;;;7.43;;
14377;SDS011;7272;53.668;9.578;2023-01-28T09:02:22;8.57;;;7.87;;
14377;SDS011;7272;53.668;9.578;2023-01-28T09:05:24;9.30;;;8.50;;
14377;SDS011;7272;53.668;9.578;2023-01-28T09:08:26;9.30;;;8.40;;
14377;SDS011;7272;53.668;9.578;2023-01-28T09:11:28;9.77;;;8.97;;
14377;SDS011;7272;53.668;9.578;2023-01-28T09:14:31;9.47;;;8.67;;
14377;SDS011;7272;53.668;9.578;2023-01-28T09:17:33;8.97;;;8.13;;
14377;SDS011;7272;53.668;9.578;2023-01-28T09:20:35;8.63;;;7.93;;
14377;SDS011;7272;53.668;9.578;2023-01-28T09:23:37;10.37;;;9.43;;
14377;SDS011;7272;53.668;9.578;2023-01-28T09:26:39;9.43;;;8.63;;
14377;SDS011;7272;53.668;9.578;2023-01-28T09:29:45;8.60;;;7.80;;
14377;SDS011;7272;53.668;9.578;2023-01-28T09:32:48;10.23;;;9.43;;
14377;SDS011;7272;53.668;9.578;2023-01-28T09:35:51;9.57;;;8.70;;
14377;SDS011;7272;53.668;9.578;2023-01-28T09:38:53;9.97;;;9.07;;
14377;SDS011;7272;53.668;9.578;2023-01-28T09:41:57;9.13;;;8.33;;
14377;SDS011;7272;53.668;9.578;2023-01-28T09:45:16;10.47;;;9.57;;
14377;SDS011;7272;53.668;9.578;2023-01-28T09:48:21;9.73;;;8.93;;
14377;SDS011;7272;53.668;9.578;2023-01-28T09:51:31;10.00;;;9.00;;
14377;SDS011;7272;53.668;9.578;2023-01-28T09:54:37;9.90;;;9.00;;
14377;SDS011;7272;53.668;9.578;2023-01-28T09:57:44;10.80;;;9.67;;
14377;SDS011;7272;53.668;9.578;2023-01-28T10:00:53;13.47;;;9.20;;
14377;SDS011;7272;53.668;9.578;2023-01-28T10:04:02;9.83;;;8.93;;
14377;SDS011;7272;53.668;9.578;2023-01-28T10:07:19;9.50;;;8.67;;
14377;SDS011;7272;53.668;9.578;2023-01-28T10:10:28;8.90;;;8.10;;
14377;SDS011;7272;53.668;9.578;2023-01-28T10:13:37;9.50;;;8.63;;
14377;SDS011;7272;53.668;9.578;2023-01-28T10:16:48;9.30;;;8.37;;
14377;SDS011;7272;53.668;9.578;2023-01-28T10:19:52;11.10;;;10.10;;
14377;SDS011;7272;53.668;9.578;2023-01-28T10:23:00;12.37;;;9.73;;
14377;SDS011;7272;53.668;9.578;2023-01-28T10:26:08;11.00;;;9.90;;
14377;SDS011;7272;53.668;9.578;2023-01-28T10:29:22;11.00;;;9.67;;
14377;SDS011;7272;53.668;9.578;2023-01-28T10:32:28;10.60;;;9.70;;
14377;SDS011;7272;53.668;9.578;2023-01-28T10:35:35;11.27;;;10.37;;
14377;SDS011;7272;53.668;9.578;2023-01-28T10:38:39;10.00;;;9.20;;
14377;SDS011;7272;53.668;9.578;2023-01-28T10:41:41;10.70;;;9.67;;
14377;SDS011;7272;53.668;9.578;2023-01-28T10:44:43;10.93;;;9.90;;
14377;SDS011;7272;53.668;9.578;2023-01-28T10:47:50;10.70;;;9.70;;
14377;SDS011;7272;53.668;9.578;2023-01-28T10:50:57;11.30;;;10.20;;
14377;SDS011;7272;53.668;9.578;2023-01-28T10:54:02;9.60;;;8.80;;
14377;SDS011;7272;53.668;9.578;2023-01-28T10:57:08;10.37;;;9.37;;
14377;SDS011;7272;53.668;9.578;2023-01-28T11:00:21;11.70;;;10.70;;
14377;SDS011;7272;53.668;9.578;2023-01-28T11:03:26;11.00;;;10.10;;
14377;SDS011;7272;53.668;9.578;2023-01-28T11:06:30;10.40;;;9.50;;
14377;SDS011;7272;53.668;9.578;2023-01-28T11:09:33;10.57;;;9.67;;
14377;SDS011;7272;53.668;9.578;2023-01-28T11:12:37;10.93;;;9.97;;
14377;SDS011;7272;53.668;9.578;2023-01-28T11:15:45;11.00;;;10.07;;
14377;SDS011;7272;53.668;9.578;2023-01-28T11:18:50;10.63;;;9.73;;
14377;SDS011;7272;53.668;9.578;2023-01-28T11:21:54;11.43;;;10.47;;
14377;SDS011;7272;53.668;9.578;2023-01-28T11:24:57;10.10;;;9.27;;
14377;SDS011;7272;53.668;9.578;2023-01-28T11:28:01;10.00;;;9.10;;
14377;SDS011;7272;53.668;9.578;2023-01-28T11:31:05;10.53;;;9.63;;
14377;SDS011;7272;53.668;9.578;2023-01-28T11:34:11;11.43;;;10.40;;
14377;SDS011;7272;53.668;9.578;2023-01-28T11:37:19;11.00;;;10.10;;
14377;SDS011;7272;53.668;9.578;2023-01-28T11:40:22;12.33;;;10.93;;
14377;SDS011;7272;53.668;9.578;2023-01-28T11:43:25;11.07;;;10.07;;
14377;SDS011;7272;53.668;9.578;2023-01-28T11:46:42;10.93;;;9.93;;
14377;SDS011;7272;53.668;9.578;2023-01-28T11:50:10;10.30;;;9.40;;
14377;SDS011;7272;53.668;9.578;2023-01-28T11:53:36;10.53;;;9.60;;
14377;SDS011;7272;53.668;9.578;2023-01-28T11:56:51;9.90;;;8.97;;
14377;SDS011;7272;53.668;9.578;2023-01-28T12:00:14;9.43;;;8.63;;
14377;SDS011;7272;53.668;9.578;2023-01-28T12:03:40;9.60;;;8.70;;
14377;SDS011;7272;53.668;9.578;2023-01-28T12:06:56;8.70;;;7.93;;
14377;SDS011;7272;53.668;9.578;2023-01-28T12:10:14;9.60;;;8.57;;
14377;SDS011;7272;53.668;9.578;2023-01-28T12:13:28;10.73;;;9.63;;
14377;SDS011;7272;53.668;9.578;2023-01-28T12:16:42;10.37;;;9.37;;
14377;SDS011;7272;53.668;9.578;2023-01-28T12:19:57;10.33;;;9.27;;
14377;SDS011;7272;53.668;9.578;2023-01-28T12:23:17;10.67;;;9.67;;
14377;SDS011;7272;53.668;9.578;2023-01-28T12:26:33;10.07;;;9.27;;
14377;SDS011;7272;53.668;9.578;2023-01-28T12:29:43;10.27;;;9.37;;
14377;SDS011;7272;53.668;9.578;2023-01-28T12:33:00;10.33;;;9.43;;
14377;SDS011;7272;53.668;9.578;2023-01-28T12:36:15;9.57;;;8.67;;
14377;SDS011;7272;53.668;9.578;2023-01-28T12:39:33;9.80;;;9.00;;
14377;SDS011;7272;53.668;9.578;2023-01-28T12:42:46;10.03;;;9.13;;
14377;SDS011;7272;53.668;9.578;2023-01-28T12:45:54;10.90;;;9.90;;
14377;SDS011;7272;53.668;9.578;2023-01-28T12:48:59;9.77;;;8.90;;
14377;SDS011;7272;53.668;9.578;2023-01-28T12:52:07;10.17;;;9.23;;
14377;SDS011;7272;53.668;9.578;2023-01-28T12:55:16;8.67;;;7.97;;
14377;SDS011;7272;53.668;9.578;2023-01-28T12:58:22;9.90;;;8.90;;
14377;SDS011;7272;53.668;9.578;2023-01-28T13:01:39;10.07;;;9.07;;
14377;SDS011;7272;53.668;9.578;2023-01-28T13:04:45;9.30;;;8.50;;
14377;SDS011;7272;53.668;9.578;2023-01-28T13:07:52;9.63;;;8.83;;
14377;SDS011;7272;53.668;9.578;2023-01-28T13:10:59;10.27;;;9.17;;
14377;SDS011;7272;53.668;9.578;2023-01-28T13:14:03;8.33;;;7.53;;
14377;SDS011;7272;53.668;9.578;2023-01-28T13:17:09;9.63;;;8.73;;
14377;SDS011;7272;53.668;9.578;2023-01-28T13:20:15;10.17;;;8.60;;
14377;SDS011;7272;53.668;9.578;2023-01-28T13:23:21;8.80;;;8.10;;
14377;SDS011;7272;53.668;9.578;2023-01-28T13:26:27;8.20;;;7.50;;
14377;SDS011;7272;53.668;9.578;2023-01-28T13:29:37;7.83;;;7.13;;
14377;SDS011;7272;53.668;9.578;2023-01-28T13:32:40;7.47;;;6.87;;
14377;SDS011;7272;53.668;9.578;2023-01-28T13:35:49;8.63;;;7.90;;
14377;SDS011;7272;53.668;9.578;2023-01-28T13:38:59;8.30;;;7.60;;
14377;SDS011;7272;53.668;9.578;2023-01-28T13:42:19;6.80;;;6.20;;
14377;SDS011;7272;53.668;9.578;2023-01-28T13:45:23;8.10;;;7.30;;
14377;SDS011;7272;53.668;9.578;2023-01-28T13:48:28;7.73;;;7.13;;
14377;SDS011;7272;53.668;9.578;2023-01-28T13:51:33;8.33;;;7.63;;
14377;SDS011;7272;53.668;9.578;2023-01-28T13:54:38;8.83;;;8.03;;
14377;SDS011;7272;53.668;9.578;2023-01-28T13:58:09;8.30;;;7.57;;
14377;SDS011;7272;53.668;9.578;2023-01-28T14:01:47;9.00;;;8.20;;
14377;SDS011;7272;53.668;9.578;2023-01-28T14:05:15;7.97;;;7.33;;
14377;SDS011;7272;53.668;9.578;2023-01-28T14:09:02;7.77;;;7.13;;
14377;SDS011;7272;53.668;9.578;2023-01-28T14:15:58;8.90;;;8.00;;
14377;SDS011;7272;53.668;9.578;2023-01-28T14:19:21;9.87;;;8.97;;
14377;SDS011;7272;53.668;9.578;2023-01-28T14:22:27;8.93;;;8.13;;
14377;SDS011;7272;53.668;9.578;2023-01-28T14:25:32;9.33;;;8.53;;
14377;SDS011;7272;53.668;9.578;2023-01-28T14:28:44;10.40;;;9.47;;
14377;SDS011;7272;53.668;9.578;2023-01-28T14:31:57;9.53;;;8.63;;
14377;SDS011;7272;53.668;9.578;2023-01-28T14:35:04;9.97;;;9.07;;
14377;SDS011;7272;53.668;9.578;2023-01-28T14:38:11;9.80;;;8.83;;
14377;SDS011;7272;53.668;9.578;2023-01-28T14:41:20;8.07;;;7.30;;
14377;SDS011;7272;53.668;9.578;2023-01-28T14:44:28;9.27;;;8.37;;
14377;SDS011;7272;53.668;9.578;2023-01-28T14:47:38;9.20;;;8.40;;
14377;SDS011;7272;53.668;9.578;2023-01-28T14:50:57;9.07;;;8.27;;
14377;SDS011;7272;53.668;9.578;2023-01-28T14:54:08;9.97;;;8.47;;
14377;SDS011;7272;53.668;9.578;2023-01-28T14:57:27;9.43;;;8.63;;
14377;SDS011;7272;53.668;9.578;2023-01-28T15:00:51;9.27;;;8.43;;
14377;SDS011;7272;53.668;9.578;2023-01-28T15:03:56;9.23;;;8.43;;
14377;SDS011;7272;53.668;9.578;2023-01-28T15:07:00;9.40;;;8.50;;
14377;SDS011;7272;53.668;9.578;2023-01-28T15:10:17;8.90;;;8.10;;
14377;SDS011;7272;53.668;9.578;2023-01-28T15:13:22;7.70;;;7.03;;
14377;SDS011;7272;53.668;9.578;2023-01-28T15:16:27;9.83;;;8.93;;
14377;SDS011;7272;53.668;9.578;2023-01-28T15:19:32;9.93;;;9.03;;
14377;SDS011;7272;53.668;9.578;2023-01-28T15:22:36;9.53;;;8.63;;
14377;SDS011;7272;53.668;9.578;2023-01-28T15:25:39;9.47;;;8.53;;
14377;SDS011;7272;53.668;9.578;2023-01-28T15:28:44;10.57;;;9.67;;
14377;SDS011;7272;53.668;9.578;2023-01-28T15:31:47;9.20;;;8.30;;
14377;SDS011;7272;53.668;9.578;2023-01-28T15:34:51;9.70;;;8.77;;
14377;SDS011;7272;53.668;9.578;2023-01-28T15:37:53;10.47;;;9.47;;
14377;SDS011;7272;53.668;9.578;2023-01-28T15:40:56;10.23;;;9.23;;
14377;SDS011;7272;53.668;9.578;2023-01-28T15:44:02;10.63;;;9.63;;
14377;SDS011;7272;53.668;9.578;2023-01-28T15:47:19;10.43;;;9.43;;
14377;SDS011;7272;53.668;9.578;2023-01-28T15:50:25;9.67;;;8.67;;
14377;SDS011;7272;53.668;9.578;2023-01-28T15:53:28;10.70;;;9.60;;
14377;SDS011;7272;53.668;9.578;2023-01-28T15:56:33;11.30;;;10.20;;
14377;SDS011;7272;53.668;9.578;2023-01-28T15:59:36;11.90;;;10.70;;
14377;SDS011;7272;53.668;9.578;2023-01-28T16:02:41;10.73;;;9.73;;
14377;SDS011;7272;53.668;9.578;2023-01-28T16:05:54;11.80;;;10.60;;
14377;SDS011;7272;53.668;9.578;2023-01-28T16:08:59;10.80;;;9.90;;
14377;SDS011;7272;53.668;9.578;2023-01-28T16:12:04;9.93;;;9.03;;
14377;SDS011;7272;53.668;9.578;2023-01-28T16:15:14;10.60;;;9.30;;
14377;SDS011;7272;53.668;9.578;2023-01-28T16:18:23;11.17;;;10.07;;
14377;SDS011;7272;53.668;9.578;2023-01-28T16:21:32;11.37;;;10.37;;
14377;SDS011;7272;53.668;9.578;2023-01-28T16:24:42;11.10;;;9.93;;
14377;SDS011;7272;53.668;9.578;2023-01-28T16:27:51;12.20;;;11.03;;
14377;SDS011;7272;53.668;9.578;2023-01-28T16:30:53;12.53;;;11.43;;
14377;SDS011;7272;53.668;9.578;2023-01-28T16:33:56;12.40;;;11.30;;
14377;SDS011;7272;53.668;9.578;2023-01-28T16:36:59;12.17;;;11.07;;
14377;SDS011;7272;53.668;9.578;2023-01-28T16:40:01;10.27;;;9.37;;
14377;SDS011;7272;53.668;9.578;2023-01-28T16:43:04;11.30;;;10.20;;
14377;SDS011;7272;53.668;9.578;2023-01-28T16:46:10;11.43;;;10.43;;
14377;SDS011;7272;53.668;9.578;2023-01-28T16:49:12;11.33;;;10.33;;
14377;SDS011;7272;53.668;9.578;2023-01-28T16:52:15;11.03;;;10.03;;
14377;SDS011;7272;53.668;9.578;2023-01-28T16:55:19;10.90;;;9.90;;
14377;SDS011;7272;53.668;9.578;2023-01-28T16:58:22;11.67;;;10.47;;
14377;SDS011;7272;53.668;9.578;2023-01-28T17:01:26;12.30;;;11.00;;
14377;SDS011;7272;53.668;9.578;2023-01-28T17:04:28;11.60;;;10.60;;
14377;SDS011;7272;53.668;9.578;2023-01-28T17:07:31;11.17;;;10.07;;
14377;SDS011;7272;53.668;9.578;2023-01-28T17:10:33;11.60;;;10.50;;
14377;SDS011;7272;53.668;9.578;2023-01-28T17:13:35;11.40;;;10.40;;
14377;SDS011;7272;53.668;9.578;2023-01-28T17:16:37;12.17;;;11.00;;
14377;SDS011;7272;53.668;9.578;2023-01-28T17:19:39;11.73;;;10.67;;
14377;SDS011;7272;53.668;9.578;2023-01-28T17:22:43;9.87;;;8.97;;
14377;SDS011;7272;53.668;9.578;2023-01-28T17:25:45;10.27;;;9.27;;
14377;SDS011;7272;53.668;9.578;2023-01-28T17:28:50;10.87;;;9.87;;
14377;SDS011;7272;53.668;9.578;2023-01-28T17:31:52;10.87;;;9.87;;
14377;SDS011;7272;53.668;9.578;2023-01-28T17:34:54;10.67;;;9.50;;
14377;SDS011;7272;53.668;9.578;2023-01-28T17:37:57;8.60;;;7.80;;
14377;SDS011;7272;53.668;9.578;2023-01-28T17:40:59;9.30;;;8.40;;
14377;SDS011;7272;53.668;9.578;2023-01-28T17:44:02;9.50;;;8.60;;
14377;SDS011;7272;53.668;9.578;2023-01-28T17:47:04;10.63;;;9.63;;
14377;SDS011;7272;53.668;9.578;2023-01-28T17:50:06;9.37;;;8.47;;
14377;SDS011;7272;53.668;9.578;2023-01-28T17:53:10;10.03;;;9.10;;
14377;SDS011;7272;53.668;9.578;2023-01-28T17:56:14;9.20;;;8.30;;
14377;SDS011;7272;53.668;9.578;2023-01-28T17:59:17;9.70;;;8.70;;
14377;SDS011;7272;53.668;9.578;2023-01-28T18:02:20;9.90;;;8.47;;
14377;SDS011;7272;53.668;9.578;2023-01-28T18:05:22;9.57;;;8.73;;
14377;SDS011;7272;53.668;9.578;2023-01-28T18:08:26;9.10;;;8.30;;
14377;SDS011;7272;53.668;9.578;2023-01-28T18:11:28;10.83;;;9.83;;
14377;SDS011;7272;53.668;9.578;2023-01-28T18:14:31;9.90;;;9.00;;
14377;SDS011;7272;53.668;9.578;2023-01-28T18:17:33;9.97;;;9.07;;
14377;SDS011;7272;53.668;9.578;2023-01-28T18:20:35;10.33;;;9.33;;
14377;SDS011;7272;53.668;9.578;2023-01-28T18:23:38;10.03;;;9.13;;
14377;SDS011;7272;53.668;9.578;2023-01-28T18:26:40;10.37;;;9.27;;
14377;SDS011;7272;53.668;9.578;2023-01-28T18:29:42;8.70;;;7.90;;
14377;SDS011;7272;53.668;9.578;2023-01-28T18:32:44;10.17;;;9.20;;
14377;SDS011;7272;53.668;9.578;2023-01-28T18:35:46;12.13;;;11.03;;
14377;SDS011;7272;53.668;9.578;2023-01-28T18:38:50;10.63;;;9.63;;
14377;SDS011;7272;53.668;9.578;2023-01-28T18:41:52;12.30;;;11.10;;
14377;SDS011;7272;53.668;9.578;2023-01-28T18:44:54;11.90;;;10.80;;
14377;SDS011;7272;53.668;9.578;2023-01-28T18:47:56;12.63;;;11.43;;
14377;SDS011;7272;53.668;9.578;2023-01-28T18:50:58;11.00;;;10.00;;
14377;SDS011;7272;53.668;9.578;2023-01-28T18:54:03;11.67;;;10.17;;
14377;SDS011;7272;53.668;9.578;2023-01-28T18:57:06;12.20;;;11.00;;
14377;SDS011;7272;53.668;9.578;2023-01-28T19:00:08;11.27;;;10.27;;
14377;SDS011;7272;53.668;9.578;2023-01-28T19:03:11;11.33;;;10.33;;
14377;SDS011;7272;53.668;9.578;2023-01-28T19:06:13;11.10;;;10.00;;